createdAt,value
2022-09-06T00:06:11.141Z,52.61
2022-09-06T00:21:53.179Z,52.74
2022-09-06T00:37:35.852Z,52.8
2022-09-06T00:53:18.130Z,52.81
2022-09-06T01:09:00.199Z,52.81
2022-09-06T01:24:42.650Z,52.79
2022-09-06T01:40:25.398Z,52.72
2022-09-06T01:56:08.229Z,52.7
2022-09-06T02:11:50.669Z,52.61
2022-09-06T02:27:33.371Z,52.67
2022-09-06T02:43:15.725Z,52.73
2022-09-06T02:58:57.711Z,52.84
2022-09-06T03:14:40.298Z,52.89
2022-09-06T03:30:22.582Z,52.93
2022-09-06T03:46:04.682Z,53.03
2022-09-06T04:01:47.045Z,53.09
2022-09-06T04:17:29.007Z,53.12
2022-09-06T04:33:11.634Z,53.16
2022-09-06T04:48:53.711Z,53.2
2022-09-06T05:04:36.158Z,48.92
2022-09-06T05:20:18.983Z,47.27
2022-09-06T05:36:01.462Z,42.97
2022-09-06T05:51:43.710Z,43.83
2022-09-06T05:52:30.969Z,43.63
2022-09-06T06:08:13.747Z,44.03
2022-09-06T06:23:56.028Z,44.83
2022-09-06T06:39:38.790Z,44.9
2022-09-06T06:55:21.353Z,45.87
2022-09-06T07:11:03.708Z,44.94
2022-09-06T07:26:46.231Z,44.55
2022-09-06T07:42:28.283Z,45.1
2022-09-06T07:58:10.385Z,46.24
2022-09-06T08:13:52.770Z,46.79
2022-09-06T08:29:35.458Z,48.06
2022-09-06T08:45:17.939Z,49.88
2022-09-06T09:01:00.223Z,48.79
2022-09-06T09:16:43.015Z,48.59
2022-09-06T09:32:24.959Z,48.34
2022-09-06T09:48:07.611Z,48.04
2022-09-06T10:03:49.843Z,47.84
2022-09-06T10:19:32.262Z,47.74
2022-09-06T10:35:14.274Z,47.68
2022-09-06T10:50:56.466Z,47.67
2022-09-06T11:06:39.076Z,47.67
2022-09-06T11:22:21.461Z,47.68
2022-09-06T11:38:03.784Z,47.72
2022-09-06T11:53:46.019Z,47.75
2022-09-06T12:09:28.059Z,47.78
2022-09-06T12:25:10.239Z,47.82
2022-09-06T12:40:52.572Z,47.86
2022-09-06T12:56:35.402Z,47.9
2022-09-06T13:12:18.279Z,47.94
2022-09-06T13:28:00.809Z,47.98
2022-09-06T13:43:43.667Z,48.02
2022-09-06T13:59:25.715Z,48.12
2022-09-06T14:15:07.991Z,48.26
2022-09-06T14:30:50.175Z,48.16
2022-09-06T16:05:05.252Z,45.82
2022-09-06T16:20:47.751Z,45.5
2022-09-06T16:52:13.340Z,45.27
2022-09-06T17:07:56.201Z,45.48
